Time;durP1;ratioP1;P1;durP2;ratioP2;P2;SDS_P1;SDS_P2;PMS_P1;PMS_P2;Temp;Humidity;BMP_temperature;BMP_pressure;BME280_temperature;BME280_humidity;BME280_pressure;Samples;Min_cycle;Max_cycle;Signal;HPM_P1;HPM_P2
2021/01/11 00:02:00;;;;;;;31.87;23.03;;;3.20;68.30;;;;;;14895023;29;20558;-77
2021/01/11 00:09:28;;;;;;;28.93;21.47;;;;;;;;;;14874301;29;20184;-77
2021/01/11 00:16:55;;;;;;;32.97;22.40;;;;;;;;;;14893036;29;20306;-76
2021/01/11 00:24:22;;;;;;;34.07;24.10;;;;;;;;;;14896628;29;20234;-76
2021/01/11 00:31:50;;;;;;;32.53;23.40;;;;;;;;;;14906184;29;20266;-78
2021/01/11 00:39:20;;;;;;;34.90;23.80;;;;;;;;;;14906732;29;20219;-75
2021/01/11 00:46:47;;;;;;;33.57;24.47;;;;;;;;;;14904928;29;20686;-76
2021/01/11 00:54:15;;;;;;;32.47;22.63;;;;;;;;;;14885656;29;20218;-78
2021/01/11 01:01:51;;;;;;;33.23;23.97;;;2.50;68.60;;;;;;14900743;29;20235;-76
2021/01/11 01:09:24;;;;;;;30.90;22.13;;;3.90;70.20;;;;;;14904452;29;20203;-75
2021/01/11 01:16:51;;;;;;;31.30;22.60;;;3.90;75.90;;;;;;14901048;29;20223;-77
2021/01/11 01:24:18;;;;;;;34.07;23.00;;;;;;;;;;14905170;29;20239;-76
2021/01/11 01:31:45;;;;;;;30.90;21.93;;;4.20;70.50;;;;;;14898320;29;20238;-77
2021/01/11 01:39:12;;;;;;;29.90;21.53;;;;;;;;;;14886191;29;20607;-76
2021/01/11 01:46:39;;;;;;;30.87;21.70;;;;;;;;;;14898279;29;20219;-77
2021/01/11 01:54:07;;;;;;;28.37;21.17;;;5.10;70.40;;;;;;14900409;29;20208;-76
2021/01/11 02:01:35;;;;;;;30.27;20.83;;;;;;;;;;14885745;29;20374;-76
2021/01/11 02:09:07;;;;;;;31.07;21.37;;;3.50;69.50;;;;;;14900714;29;20192;-76
2021/01/11 02:16:45;;;;;;;28.70;21.03;;;4.20;69.30;;;;;;14897569;29;20231;-77
2021/01/11 02:24:32;;;;;;;28.33;20.50;;;;;;;;;;14884321;29;20271;-76
2021/01/11 02:32:01;;;;;;;28.03;20.27;;;;;;;;;;14900040;29;20187;-77
2021/01/11 02:39:28;;;;;;;27.13;20.37;;;;;;;;;;14899272;29;20212;-76
2021/01/11 02:46:56;;;;;;;28.80;21.23;;;;;;;;;;14895536;29;20219;-76
2021/01/11 02:54:27;;;;;;;30.93;21.57;;;3.40;69.60;;;;;;14898791;29;20196;-76
2021/01/11 03:01:55;;;;;;;27.43;19.67;;;;;;;;;;14881612;29;20238;-76
2021/01/11 03:09:23;;;;;;;29.17;20.97;;;;;;;;;;14896891;29;20670;-76
2021/01/11 03:16:50;;;;;;;31.83;22.27;;;;;;;;;;14878089;29;20805;-77
2021/01/11 03:24:17;;;;;;;33.43;23.40;;;;;;;;;;14879414;29;20678;-78
2021/01/11 03:31:45;;;;;;;33.40;22.97;;;;;;;;;;14895763;29;20247;-76
2021/01/11 03:39:13;;;;;;;32.77;22.47;;;;;;;;;;14894881;29;20579;-76
2021/01/11 03:46:39;;;;;;;32.53;22.43;;;;;;;;;;14893674;29;20219;-77
2021/01/11 03:54:07;;;;;;;29.67;20.90;;;2.00;69.60;;;;;;14896849;29;20282;-77
2021/01/11 04:01:37;;;;;;;28.70;20.07;;;;;;;;;;14895441;29;20235;-76
2021/01/11 04:09:04;;;;;;;29.13;19.80;;;;;;;;;;14894124;29;20690;-77
2021/01/11 04:16:32;;;;;;;29.67;21.20;;;1.90;69.30;;;;;;14895449;29;20227;-76
2021/01/11 04:24:00;;;;;;;31.10;21.97;;;;;;;;;;14894153;29;20347;-77
2021/01/11 04:31:27;;;;;;;36.13;23.80;;;3.20;69.00;;;;;;14893381;29;20214;-76
2021/01/11 04:38:55;;;;;;;37.07;23.97;;;;;;;;;;14894057;29;20717;-76
2021/01/11 04:46:25;;;;;;;36.53;24.40;;;;;;;;;;14894753;29;20300;-77
2021/01/11 04:53:53;;;;;;;33.60;23.63;;;;;;;;;;14894472;29;20208;-76
2021/01/11 05:01:22;;;;;;;34.97;24.17;;;;;;;;;;14892310;29;20270;-76
2021/01/11 05:08:48;;;;;;;36.60;24.47;;;;;;;;;;14893124;29;20314;-76
2021/01/11 05:16:16;;;;;;;37.90;25.23;;;;;;;;;;14904678;29;20242;-75
2021/01/11 05:23:43;;;;;;;37.93;26.00;;;2.80;71.60;;;;;;14902268;29;20208;-76
2021/01/11 05:31:10;;;;;;;36.20;24.63;;;;;;;;;;14900322;29;20200;-75
2021/01/11 05:38:39;;;;;;;36.60;25.47;;;;;;;;;;14885787;29;20247;-78
2021/01/11 05:46:24;;;;;;;39.83;24.93;;;;;;;;;;14901075;29;20302;-76
2021/01/11 05:53:52;;;;;;;35.33;24.37;;;;;;;;;;14900804;29;20188;-76
2021/01/11 06:01:19;;;;;;;38.87;26.03;;;;;;;;;;14897503;29;20246;-76
2021/01/11 06:08:51;;;;;;;35.43;25.07;;;;;;;;;;14900258;29;20219;-76
2021/01/11 06:16:20;;;;;;;39.67;26.13;;;;;;;;;;14899592;29;20235;-76
2021/01/11 06:23:47;;;;;;;41.63;26.17;;;;;;;;;;14898379;29;20558;-77
2021/01/11 06:31:15;;;;;;;38.30;25.93;;;;;;;;;;14881538;29;20286;-76
2021/01/11 06:38:46;;;;;;;39.63;25.57;;;2.70;72.70;;;;;;14897816;29;20218;-76
2021/01/11 06:46:42;;;;;;;40.40;26.23;;;;;;;;;;14896268;29;20223;-76
2021/01/11 06:54:10;;;;;;;43.37;28.70;;;;;;;;;;14896359;29;20282;-77
2021/01/11 07:01:39;;;;;;;39.87;25.50;;;;;;;;;;14895552;29;20251;-78
2021/01/11 07:09:07;;;;;;;38.27;25.80;;;;;;;;;;14880048;29;20290;-76
2021/01/11 07:16:41;;;;;;;40.37;26.60;;;1.90;72.30;;;;;;14894926;29;20231;-76
2021/01/11 07:24:08;;;;;;;42.20;26.67;;;;;;;;;;14875982;29;20194;-77
2021/01/11 07:31:36;;;;;;;40.13;26.27;;;;;;;;;;14892934;29;20206;-77
2021/01/11 07:39:13;;;;;;;45.93;26.83;;;;;;;;;;14896344;29;20311;-79
2021/01/11 07:46:40;;;;;;;43.37;28.07;;;;;;;;;;14895061;29;20536;-77
2021/01/11 07:54:14;;;;;;;41.00;28.70;;;;;;;;;;14891802;29;20191;-76
2021/01/11 08:01:44;;;;;;;43.30;28.63;;;;;;;;;;14876698;29;20658;-78
2021/01/11 08:09:13;;;;;;;45.63;29.10;;;;;;;;;;14914913;29;20217;-76
2021/01/11 08:16:41;;;;;;;43.73;26.90;;;;;;;;;;14949471;29;20320;-78
2021/01/11 08:24:11;;;;;;;38.77;26.40;;;;;;;;;;14933337;29;20330;-76
2021/01/11 08:31:40;;;;;;;43.83;28.13;;;;;;;;;;14929677;29;20661;-76
2021/01/11 08:39:09;;;;;;;41.90;25.43;;;;;;;;;;14890143;29;20236;-76
2021/01/11 08:46:56;;;;;;;38.17;26.13;;;;;;;;;;14892020;29;20294;-78
2021/01/11 08:54:27;;;;;;;36.23;26.13;;;;;;;;;;14883877;29;20587;-76
2021/01/11 09:01:54;;;;;;;39.00;25.27;;;;;;;;;;14895387;29;20258;-78
2021/01/11 09:09:28;;;;;;;40.17;26.13;;;;;;;;;;14882905;29;20209;-76
2021/01/11 09:16:58;;;;;;;37.83;25.00;;;1.70;69.10;;;;;;14900715;29;20231;-78
2021/01/11 09:24:26;;;;;;;39.10;23.40;;;;;;;;;;14899094;29;20200;-77
2021/01/11 09:31:54;;;;;;;32.80;21.93;;;;;;;;;;14883681;29;20219;-77
2021/01/11 09:39:22;;;;;;;27.53;19.60;;;;;;;;;;14883356;29;20268;-76
2021/01/11 09:46:52;;;;;;;29.83;18.33;;;1.60;67.50;;;;;;14897545;29;20227;-77
2021/01/11 09:54:20;;;;;;;23.50;16.37;;;;;;;;;;14884754;29;20262;-78
2021/01/11 10:01:51;;;;;;;21.40;15.37;;;;;;;;;;14896547;29;20251;-77
2021/01/11 10:09:23;;;;;;;24.30;15.73;;;;;;;;;;14899512;29;20282;-81
2021/01/11 10:16:53;;;;;;;27.27;17.83;;;;;;;;;;14881222;29;20254;-81
2021/01/11 10:24:23;;;;;;;24.87;17.70;;;3.40;68.60;;;;;;14897535;29;20627;-80
2021/01/11 10:31:51;;;;;;;25.20;18.43;;;;;;;;;;14852780;29;20302;-79
2021/01/11 10:39:23;;;;;;;24.60;18.63;;;3.90;67.80;;;;;;14896581;29;20216;-81
2021/01/11 10:46:53;;;;;;;25.23;17.63;;;;;;;;;;14884897;29;20278;-80
2021/01/11 10:54:23;;;;;;;24.13;19.00;;;;;;;;;;14949444;29;20187;-79
2021/01/11 11:01:52;;;;;;;27.83;21.37;;;;;;;;;;14921201;29;20645;-79
2021/01/11 11:09:22;;;;;;;28.07;19.97;;;;;;;;;;14950019;29;20262;-78
2021/01/11 11:16:55;;;;;;;24.90;19.33;;;;;;;;;;14950772;29;20308;-78
2021/01/11 11:24:28;;;;;;;27.60;19.90;;;;;;;;;;14932389;29;20191;-78
2021/01/11 11:31:56;;;;;;;31.60;21.10;;;;;;;;;;14934265;29;20282;-76
2021/01/11 11:39:23;;;;;;;28.67;21.37;;;;;;;;;;14951930;29;20593;-74
2021/01/11 11:46:55;;;;;;;21.07;16.57;;;;;;;;;;14949081;29;20219;-79
2021/01/11 11:54:24;;;;;;;22.13;16.40;;;;;;;;;;14933110;29;20199;-75
2021/01/11 12:01:51;;;;;;;23.43;17.43;;;12.90;51.70;;;;;;14932656;29;20580;-77
2021/01/11 12:09:19;;;;;;;24.83;16.60;;;;;;;;;;14916069;29;20213;-78
2021/01/11 12:16:49;;;;;;;15.23;10.83;;;;;;;;;;14949254;29;20238;-77
2021/01/11 12:24:16;;;;;;;20.03;14.30;;;;;;;;;;14957791;29;20279;-77
2021/01/11 12:31:45;;;;;;;11.10;8.37;;;;;;;;;;14927685;29;20198;-77
2021/01/11 12:39:14;;;;;;;13.30;9.23;;;;;;;;;;14942841;29;20219;-79
2021/01/11 12:46:44;;;;;;;16.30;11.67;;;6.60;55.60;;;;;;14958645;29;20249;-78
2021/01/11 12:54:12;;;;;;;15.80;10.10;;;;;;;;;;14927252;29;20235;-76
2021/01/11 13:01:39;;;;;;;16.33;12.43;;;;;;;;;;14956763;29;20356;-77
2021/01/11 13:09:26;;;;;;;19.30;15.40;;;7.40;56.20;;;;;;14958675;29;20199;-77
2021/01/11 13:16:59;;;;;;;21.77;16.17;;;7.10;56.50;;;;;;14928126;29;20360;-78
2021/01/11 13:24:28;;;;;;;26.30;18.03;;;;;;;;;;14956607;29;20694;-77
2021/01/11 13:31:55;;;;;;;23.97;18.67;;;;;;;;;;14955062;29;20628;-79
2021/01/11 13:39:27;;;;;;;30.60;21.37;;;5.70;61.40;;;;;;14956625;29;20548;-75
2021/01/11 13:46:54;;;;;;;24.67;18.53;;;;;;;;;;14940877;29;20222;-75
2021/01/11 13:54:23;;;;;;;21.80;15.67;;;7.60;63.60;;;;;;14940526;29;20195;-76
2021/01/11 14:01:54;;;;;;;20.03;15.30;;;;;;;;;;14934829;29;20242;-77
2021/01/11 14:09:23;;;;;;;45.83;33.80;;;;;;;;;;14955561;29;20198;-76
2021/01/11 14:16:50;;;;;;;21.83;15.53;;;;;;;;;;14954790;29;20282;-77
2021/01/11 14:24:19;;;;;;;28.97;16.33;;;5.70;57.80;;;;;;14953842;29;20210;-76
2021/01/11 14:31:46;;;;;;;20.80;14.80;;;;;;;;;;14922182;29;20215;-78
2021/01/11 14:39:15;;;;;;;23.70;15.40;;;4.90;56.60;;;;;;14954135;29;20265;-77
2021/01/11 14:46:43;;;;;;;25.33;17.30;;;;;;;;;;14937161;29;20597;-78
2021/01/11 14:54:10;;;;;;;25.93;18.13;;;;;;;;;;14950765;29;20631;-77
2021/01/11 15:01:37;;;;;;;28.90;17.93;;;;;;;;;;14952512;29;20603;-77
2021/01/11 15:09:07;;;;;;;26.67;19.27;;;;;;;;;;14935504;29;20207;-78
2021/01/11 15:16:41;;;;;;;30.93;19.23;;;;;;;;;;14951668;29;20242;-76
2021/01/11 15:24:15;;;;;;;30.97;21.90;;;5.20;59.20;;;;;;14930596;29;20258;-77
2021/01/11 15:31:52;;;;;;;29.53;23.17;;;;;;;;;;14932712;29;20450;-77
2021/01/11 15:39:21;;;;;;;28.97;22.50;;;;;;;;;;14951073;29;20283;-77
2021/01/11 15:46:50;;;;;;;31.57;22.27;;;;;;;;;;14935382;29;20323;-77
2021/01/11 15:54:23;;;;;;;36.13;25.50;;;4.70;65.70;;;;;;14933456;29;20266;-78
2021/01/11 16:01:50;;;;;;;36.83;25.30;;;;;;;;;;14934867;29;20239;-77
2021/01/11 16:09:18;;;;;;;37.10;24.87;;;;;;;;;;14935481;29;20210;-79
2021/01/11 16:16:46;;;;;;;34.47;24.43;;;;;;;;;;14949452;29;20701;-79
2021/01/11 16:24:13;;;;;;;32.40;23.00;;;;;;;;;;14950092;29;20195;-77
2021/01/11 16:31:40;;;;;;;34.47;23.00;;;;;;;;;;14949783;29;20469;-76
2021/01/11 16:39:09;;;;;;;30.20;22.83;;;5.80;59.40;;;;;;14948150;29;20677;-78
2021/01/11 16:46:37;;;;;;;30.00;22.80;;;;;;;;;;14949981;29;20264;-77
2021/01/11 16:54:07;;;;;;;31.13;23.80;;;;;;;;;;14949948;29;20591;-78
2021/01/11 17:01:38;;;;;;;35.87;25.40;;;;;;;;;;14950262;29;20267;-78
2021/01/11 17:09:15;;;;;;;30.30;23.87;;;;;;;;;;14957183;29;20194;-79
2021/01/11 17:16:44;;;;;;;36.40;25.03;;;4.80;60.00;;;;;;14956662;29;20233;-75
2021/01/11 17:24:15;;;;;;;55.93;36.90;;;;;;;;;;14925513;29;20211;-78
2021/01/11 17:31:47;;;;;;;37.40;25.37;;;;;;;;;;14956675;29;20218;-76
2021/01/11 17:39:15;;;;;;;35.07;25.00;;;4.10;59.60;;;;;;14942718;29;20230;-79
2021/01/11 17:46:43;;;;;;;34.30;24.50;;;;;;;;;;14942881;29;20231;-77
2021/01/11 17:54:13;;;;;;;37.93;25.20;;;4.70;60.30;;;;;;14958818;29;20202;-77
2021/01/11 18:01:40;;;;;;;40.77;25.70;;;;;;;;;;14956971;29;20344;-79
2021/01/11 18:09:09;;;;;;;33.87;24.03;;;;;;;;;;14956404;29;20191;-79
2021/01/11 18:16:43;;;;;;;33.70;23.53;;;;;;;;;;14954489;29;20592;-77
2021/01/11 18:24:13;;;;;;;34.23;24.60;;;;;;;;;;14941243;29;20198;-77
2021/01/11 18:31:40;;;;;;;39.33;28.67;;;;;;;;;;14939996;29;20338;-76
2021/01/11 18:39:10;;;;;;;41.90;28.80;;;3.30;67.80;;;;;;14955156;29;20559;-77
2021/01/11 18:46:37;;;;;;;42.77;29.00;;;;;;;;;;14956328;29;20715;-78
2021/01/11 18:54:07;;;;;;;37.97;27.10;;;;;;;;;;14941875;29;20213;-77
2021/01/11 19:01:39;;;;;;;42.83;28.57;;;;;;;;;;14955193;29;20588;-76
2021/01/11 19:09:07;;;;;;;41.57;28.67;;;;;;;;;;14935312;29;20222;-78
2021/01/11 19:16:33;;;;;;;43.10;29.47;;;;;;;;;;14938331;29;20330;-76
2021/01/11 19:24:07;;;;;;;42.80;29.73;;;;;;;;;;14955363;29;20203;-77
2021/01/11 19:31:36;;;;;;;43.27;30.80;;;4.60;66.10;;;;;;14947784;29;20201;-77
2021/01/11 19:39:07;;;;;;;43.37;30.93;;;1.70;64.60;;;;;;14932784;29;20637;-76
2021/01/11 19:46:40;;;;;;;46.77;32.20;;;2.70;61.20;;;;;;14935066;29;20278;-77
2021/01/11 19:54:17;;;;;;;42.83;31.50;;;3.90;66.50;;;;;;14918898;29;20216;-76
2021/01/11 20:01:46;;;;;;;45.17;32.27;;;;;;;;;;14917570;29;20638;-75
2021/01/11 20:09:15;;;;;;;45.23;32.90;;;;;;;;;;14932919;29;20301;-79
2021/01/11 20:16:44;;;;;;;48.17;33.27;;;;;;;;;;14933995;29;20248;-77
2021/01/11 20:24:14;;;;;;;48.80;34.47;;;;;;;;;;14933663;29;20183;-78
2021/01/11 20:31:48;;;;;;;51.30;34.87;;;;;;;;;;14947373;29;20218;-81
2021/01/11 20:39:16;;;;;;;44.50;32.60;;;;;;;;;;14948458;29;20219;-78
2021/01/11 20:46:48;;;;;;;50.03;35.43;;;;;;;;;;14944817;29;20689;-78
2021/01/11 20:54:15;;;;;;;44.60;33.93;;;;;;;;;;14960159;29;20189;-78
2021/01/11 21:01:43;;;;;;;49.57;34.23;;;;;;;;;;14941249;29;20313;-78
2021/01/11 21:09:12;;;;;;;49.03;34.57;;;2.40;65.00;;;;;;14945151;29;20211;-78
2021/01/11 21:16:39;;;;;;;51.33;36.63;;;;;;;;;;14942199;29;20717;-79
2021/01/11 21:24:09;;;;;;;56.40;37.87;;;3.90;72.80;;;;;;14958368;29;20190;-78
2021/01/11 21:31:38;;;;;;;55.53;36.27;;;;;;;;;;14956866;29;20294;-77
2021/01/11 21:39:11;;;;;;;52.07;36.20;;;2.80;66.90;;;;;;14941954;29;20330;-79
2021/01/11 21:46:41;;;;;;;56.77;37.87;;;1.40;65.30;;;;;;14926331;29;20230;-77
2021/01/11 21:54:10;;;;;;;53.40;36.40;;;3.50;72.60;;;;;;14940030;29;20620;-78
2021/01/11 22:01:41;;;;;;;56.40;38.40;;;2.70;66.50;;;;;;14939348;29;20793;-77
2021/01/11 22:09:08;;;;;;;58.83;39.87;;;;;;;;;;14940384;29;20207;-77
2021/01/11 22:16:36;;;;;;;58.03;39.83;;;;;;;;;;14939153;29;20322;-78
2021/01/11 22:24:05;;;;;;;60.63;41.30;;;;;;;;;;14954050;29;20202;-78
2021/01/11 22:31:32;;;;;;;58.63;39.13;;;;;;;;;;14954889;29;20191;-77
2021/01/11 22:39:01;;;;;;;55.87;37.70;;;;;;;;;;14955530;29;20214;-77
2021/01/11 22:46:29;;;;;;;58.03;38.67;;;;;;;;;;14922730;29;20314;-77
2021/01/11 22:53:56;;;;;;;60.27;39.53;;;;;;;;;;14951386;29;20634;-77
2021/01/11 23:01:23;;;;;;;56.63;39.43;;;;;;;;;;14936652;29;20253;-77
2021/01/11 23:08:52;;;;;;;58.93;39.00;;;;;;;;;;14952932;29;20214;-78
2021/01/11 23:16:20;;;;;;;103.83;67.63;;;;;;;;;;14934949;29;20225;-77
2021/01/11 23:23:47;;;;;;;60.77;38.97;;;;;;;;;;14934591;29;20637;-79
2021/01/11 23:31:17;;;;;;;57.97;38.10;;;;;;;;;;14951644;29;20197;-79
2021/01/11 23:39:00;;;;;;;59.90;37.80;;;;;;;;;;14950879;29;20300;-80
2021/01/11 23:46:29;;;;;;;57.23;37.83;;;;;;;;;;14948424;29;20282;-79
2021/01/11 23:53:56;;;;;;;58.67;40.40;;;;;;;;;;14934105;29;20214;-80
